PS47 weather

Hamilton Hill Airport
Ebensburg, Pennsylvania, United States

Public forecast

Using degrees Fahrenheit for public forecast. Weather courtesy of forecast.io.

Closest aviation weather report (METAR) to Hamilton Hill Airport

Closest report is John Murtha Johnstown Cambria County Airport, 7.9 nm (14.7 km) SSW. Retrieved 2019/10/19 10:54 UTC (48 minutes ago):

KJST 191054Z AUTO 18003KT 10SM CLR 01/M01 A3005 RMK AO2 SLP191 T00111006

Closest aviation forecast (TAF) to Hamilton Hill Airport

Closest forecast is John Murtha Johnstown Cambria County Airport, 7.9 nm (14.7 km) SSW. Retrieved 2019/10/19 06:00 UTC (6 hours ago):

TAF KJST 190559Z 1906/2006 VRB02KT P6SM VCFG FEW250 FM191400 15006KT P6SM SCT250